createdAt,value
2018-06-13T00:40:06.847Z,83.40
2018-06-13T00:49:21.695Z,82.30
2018-06-13T00:57:23.401Z,82.60
2018-06-13T01:00:29.458Z,82.80
2018-06-13T01:56:55.713Z,83.90
2018-06-13T01:59:52.957Z,83.90
2018-06-13T02:39:24.424Z,84.40
2018-06-13T05:23:06.576Z,84.00
2018-06-13T05:25:36.112Z,84.00
2018-06-13T05:28:04.812Z,83.60
2018-06-13T05:30:36.917Z,83.70
2018-06-13T05:33:12.006Z,83.90
2018-06-13T05:35:40.745Z,84.00
2018-06-13T05:38:09.978Z,84.30
2018-06-13T05:40:38.756Z,84.30
2018-06-13T05:43:27.240Z,84.40
2018-06-13T05:48:43.503Z,84.30
2018-06-13T05:51:24.636Z,84.40
2018-06-13T05:56:49.728Z,84.60
2018-06-13T05:59:18.425Z,85.30
2018-06-13T06:04:48.264Z,84.50
2018-06-13T06:07:24.061Z,84.60
2018-06-13T06:10:02.848Z,84.50
2018-06-13T06:12:54.896Z,84.50
2018-06-13T06:15:29.515Z,84.50
2018-06-13T06:17:58.007Z,84.40
2018-06-13T06:20:26.756Z,85.00
2018-06-13T06:40:00.466Z,83.80
2018-06-13T06:42:29.029Z,83.40
2018-06-13T06:44:57.523Z,83.20
2018-06-13T06:49:33.753Z,83.30
2018-06-13T06:52:03.566Z,83.30
2018-06-13T06:54:34.370Z,83.30
2018-06-13T06:57:36.976Z,83.00
2018-06-13T07:00:05.671Z,83.10
2018-06-13T07:02:34.459Z,83.10
2018-06-13T07:05:03.097Z,83.00
2018-06-13T07:07:32.271Z,83.20
2018-06-13T07:10:02.937Z,83.20
2018-06-13T07:35:41.843Z,82.00
2018-06-13T07:38:10.497Z,82.20
2018-06-13T07:40:39.005Z,81.70
2018-06-13T07:45:35.840Z,81.20
2018-06-13T07:48:04.351Z,81.20
2018-06-13T07:50:33.245Z,81.00
2018-06-13T08:10:00.344Z,80.20
2018-06-13T08:12:28.987Z,79.70
2018-06-13T08:14:57.518Z,79.30
2018-06-13T08:17:26.223Z,79.80
2018-06-13T08:19:54.750Z,79.90
2018-06-13T08:27:57.711Z,80.00
2018-06-13T08:30:26.380Z,80.30
2018-06-13T08:32:58.023Z,80.40
2018-06-13T08:35:27.409Z,80.60
2018-06-13T08:47:14.002Z,80.40
2018-06-13T08:49:43.015Z,80.30
2018-06-13T08:55:05.979Z,80.60
2018-06-13T08:57:38.481Z,79.70
2018-06-13T09:00:13.785Z,79.50
2018-06-13T09:02:42.614Z,78.90
2018-06-13T09:05:11.172Z,79.60
2018-06-13T09:07:39.688Z,79.50
2018-06-13T09:10:08.231Z,79.20
2018-06-13T09:12:36.775Z,79.30
2018-06-13T09:15:05.457Z,79.60
2018-06-13T09:17:36.972Z,79.40
2018-06-13T09:20:05.580Z,79.10
2018-06-13T09:22:34.331Z,79.30
2018-06-13T09:25:03.011Z,78.90
2018-06-13T09:27:43.481Z,78.70
2018-06-13T09:30:37.796Z,78.10
2018-06-13T09:33:16.631Z,77.40
2018-06-13T09:35:45.794Z,78.00
2018-06-13T09:38:14.380Z,78.60
2018-06-13T09:41:03.632Z,78.60
2018-06-13T09:43:32.233Z,78.50
2018-06-13T09:46:03.560Z,78.90
2018-06-13T09:48:29.556Z,78.40
2018-06-13T09:50:58.056Z,78.50
2018-06-13T09:53:26.752Z,78.50
2018-06-13T09:55:55.287Z,78.60
2018-06-13T09:58:23.902Z,78.10
2018-06-13T10:03:43.055Z,78.30
2018-06-13T10:06:11.676Z,78.20
2018-06-13T10:08:47.083Z,78.20
2018-06-13T10:11:15.574Z,78.50
2018-06-13T10:13:43.960Z,78.90
2018-06-13T10:16:12.564Z,78.10
2018-06-13T10:38:47.475Z,77.50
2018-06-13T12:05:52.871Z,77.50
2018-06-13T12:08:22.551Z,76.70
2018-06-13T12:10:51.118Z,76.70
2018-06-13T12:13:20.029Z,76.70
2018-06-13T12:15:48.793Z,76.10
2018-06-13T12:18:17.351Z,76.30
2018-06-13T12:20:46.033Z,75.80
2018-06-13T12:24:30.750Z,75.60
2018-06-13T12:44:39.257Z,75.50
2018-06-13T12:47:07.927Z,75.60
2018-06-13T12:49:36.538Z,76.20
2018-06-13T12:52:05.078Z,74.80
2018-06-13T12:54:33.740Z,74.90
2018-06-13T12:57:02.434Z,75.40
2018-06-13T12:59:30.999Z,75.30
2018-06-13T13:01:59.931Z,75.30
2018-06-13T13:21:32.481Z,74.50
2018-06-13T13:24:01.151Z,74.70
2018-06-13T13:26:29.663Z,74.10
2018-06-13T13:28:58.375Z,74.90
2018-06-13T13:31:26.987Z,75.10
2018-06-13T13:33:55.635Z,75.30
2018-06-13T13:36:24.255Z,75.00
2018-06-13T13:55:59.439Z,75.40
2018-06-13T13:58:28.003Z,75.20
2018-06-13T14:00:56.970Z,75.00
2018-06-13T14:03:25.557Z,74.30
2018-06-13T14:05:54.811Z,74.50
2018-06-13T14:11:19.300Z,74.30
2018-06-13T14:13:48.035Z,73.80
2018-06-13T14:16:20.451Z,74.70
2018-06-13T14:34:15.236Z,73.80
2018-06-13T14:36:43.915Z,74.30
2018-06-13T14:39:12.931Z,74.10
2018-06-13T14:41:41.423Z,73.80
2018-06-13T14:44:09.972Z,74.60
2018-06-13T14:46:38.563Z,74.70
2018-06-13T14:49:07.160Z,74.40
2018-06-13T14:51:35.776Z,74.10
2018-06-13T14:54:04.590Z,73.80
2018-06-13T14:59:42.389Z,71.80
2018-06-13T15:02:10.966Z,72.60
2018-06-13T15:04:39.560Z,72.80
2018-06-13T15:07:08.345Z,72.90
2018-06-13T15:09:37.049Z,73.20
2018-06-13T15:12:06.041Z,73.40
2018-06-13T15:14:34.826Z,73.30
2018-06-13T15:17:03.536Z,73.50
2018-06-13T15:19:33.335Z,73.90
2018-06-13T15:27:53.044Z,72.80
2018-06-13T15:30:21.703Z,72.40
2018-06-13T15:32:50.282Z,72.10
2018-06-13T15:35:18.832Z,72.00
2018-06-13T15:37:47.316Z,71.80
2018-06-13T15:40:15.942Z,71.90
2018-06-13T15:48:33.563Z,72.00
2018-06-13T15:51:02.432Z,71.70
2018-06-13T15:53:30.960Z,71.20
2018-06-13T15:55:59.665Z,71.40
2018-06-13T15:58:28.188Z,71.10
2018-06-13T16:00:56.952Z,71.60
2018-06-13T16:03:25.736Z,71.30
2018-06-13T16:05:55.892Z,71.90
2018-06-13T16:08:24.610Z,71.70
2018-06-13T16:10:53.489Z,71.40
2018-06-13T16:13:22.209Z,71.60
2018-06-13T16:15:50.887Z,71.20
2018-06-13T16:21:10.488Z,71.50
2018-06-13T16:23:39.437Z,71.10
2018-06-13T16:26:12.500Z,71.40
2018-06-13T16:28:41.408Z,70.80
2018-06-13T16:31:11.881Z,71.00
2018-06-13T16:33:40.599Z,70.60
2018-06-13T16:36:09.282Z,71.20
2018-06-13T16:38:38.171Z,71.50
2018-06-13T16:41:06.989Z,71.60
2018-06-13T16:43:35.552Z,71.10
2018-06-13T16:52:31.993Z,71.70
2018-06-13T16:55:20.167Z,71.80
2018-06-13T16:57:51.980Z,71.90
2018-06-13T17:00:23.768Z,71.40
2018-06-13T17:06:00.431Z,71.80
2018-06-13T17:08:29.021Z,71.70
2018-06-13T17:10:57.914Z,71.20
2018-06-13T17:13:31.236Z,70.70
2018-06-13T17:16:00.296Z,69.40
2018-06-13T17:44:28.382Z,70.30
2018-06-13T17:46:57.354Z,69.80
2018-06-13T17:49:27.012Z,69.50
2018-06-13T17:52:00.895Z,69.50
2018-06-13T17:54:42.091Z,69.60
2018-06-13T18:14:31.435Z,70.30
2018-06-13T18:16:59.875Z,70.40
2018-06-13T18:19:28.415Z,70.40
2018-06-13T18:21:56.776Z,70.50
2018-06-13T18:24:25.247Z,70.50
2018-06-13T18:26:53.825Z,70.30
2018-06-13T18:29:22.496Z,70.20
2018-06-13T18:31:50.925Z,70.10
2018-06-13T18:34:19.871Z,70.20
2018-06-13T18:36:48.265Z,70.20
2018-06-13T18:39:16.689Z,70.30
2018-06-13T18:41:45.072Z,70.10
2018-06-13T18:44:13.597Z,70.10
2018-06-13T18:46:42.045Z,70.20
2018-06-13T18:52:24.408Z,70.20
2018-06-13T18:54:52.987Z,70.40
2018-06-13T18:57:23.745Z,70.50
2018-06-13T18:59:52.276Z,70.60
2018-06-13T19:02:30.950Z,70.70
2018-06-13T19:13:10.508Z,70.80
2018-06-13T19:15:39.007Z,70.90
2018-06-13T19:26:53.682Z,71.70
2018-06-13T19:29:23.769Z,71.80
2018-06-13T19:31:53.146Z,72.10
2018-06-13T19:34:26.038Z,72.10
2018-06-13T19:39:55.702Z,72.60
2018-06-13T19:54:04.785Z,72.80
2018-06-13T19:56:38.632Z,72.90
2018-06-13T22:02:39.349Z,76.20
2018-06-13T22:05:19.920Z,76.90
2018-06-13T22:08:41.521Z,76.50
2018-06-13T22:11:16.912Z,76.60
2018-06-13T22:13:55.075Z,76.60
2018-06-13T22:16:26.271Z,76.70
2018-06-13T22:19:00.334Z,76.70
2018-06-13T22:21:56.424Z,76.70
2018-06-13T22:27:41.291Z,77.00
2018-06-13T22:30:19.201Z,77.20
2018-06-13T22:52:56.091Z,77.50
2018-06-13T22:55:36.858Z,77.50
2018-06-13T22:58:16.218Z,77.50
2018-06-13T23:01:14.954Z,77.50
2018-06-13T23:03:57.244Z,77.70
2018-06-13T23:06:35.740Z,77.80
2018-06-13T23:09:18.270Z,77.80
2018-06-13T23:11:57.393Z,77.80
2018-06-13T23:14:29.229Z,77.90
2018-06-13T23:17:03.540Z,78.00
2018-06-13T23:19:42.510Z,78.00
2018-06-13T23:22:17.819Z,77.80
2018-06-13T23:27:46.330Z,77.90
2018-06-13T23:30:16.068Z,78.10
2018-06-13T23:32:46.818Z,78.10
2018-06-13T23:35:19.806Z,78.30
2018-06-13T23:37:52.733Z,78.30
2018-06-13T23:40:26.642Z,78.20
2018-06-13T23:43:10.463Z,78.20
